sensor_id;sensor_type;location;lat;lon;timestamp;temperature;humidity
70820;DHT22;58439;51.046;13.692;2023-03-22T00:00:06;11.60;99.90
70820;DHT22;58439;51.046;13.692;2023-03-22T00:03:00;11.60;99.90
70820;DHT22;58439;51.046;13.692;2023-03-22T00:05:28;11.60;99.90
70820;DHT22;58439;51.046;13.692;2023-03-22T00:08:00;11.60;99.90
70820;DHT22;58439;51.046;13.692;2023-03-22T00:10:31;11.60;99.90
70820;DHT22;58439;51.046;13.692;2023-03-22T00:12:59;11.60;99.90
70820;DHT22;58439;51.046;13.692;2023-03-22T00:15:26;11.60;99.90
70820;DHT22;58439;51.046;13.692;2023-03-22T00:17:55;11.60;99.90
70820;DHT22;58439;51.046;13.692;2023-03-22T00:20:30;11.60;99.90
70820;DHT22;58439;51.046;13.692;2023-03-22T00:22:59;11.60;99.90
70820;DHT22;58439;51.046;13.692;2023-03-22T00:25:29;11.50;99.90
70820;DHT22;58439;51.046;13.692;2023-03-22T00:27:57;11.50;99.90
70820;DHT22;58439;51.046;13.692;2023-03-22T00:30:24;11.50;99.90
70820;DHT22;58439;51.046;13.692;2023-03-22T00:32:51;11.50;99.90
70820;DHT22;58439;51.046;13.692;2023-03-22T00:35:19;11.40;99.90
70820;DHT22;58439;51.046;13.692;2023-03-22T00:37:46;11.50;99.90
70820;DHT22;58439;51.046;13.692;2023-03-22T00:40:16;11.40;99.90
70820;DHT22;58439;51.046;13.692;2023-03-22T00:42:44;11.40;99.90
70820;DHT22;58439;51.046;13.692;2023-03-22T00:45:11;11.40;99.90
70820;DHT22;58439;51.046;13.692;2023-03-22T00:47:39;11.40;99.90
70820;DHT22;58439;51.046;13.692;2023-03-22T00:50:06;11.30;99.90
70820;DHT22;58439;51.046;13.692;2023-03-22T00:52:34;11.30;99.90
70820;DHT22;58439;51.046;13.692;2023-03-22T00:55:01;11.20;99.90
70820;DHT22;58439;51.046;13.692;2023-03-22T00:57:28;11.20;99.90
70820;DHT22;58439;51.046;13.692;2023-03-22T00:59:55;11.10;99.90
70820;DHT22;58439;51.046;13.692;2023-03-22T01:02:35;11.00;99.90
70820;DHT22;58439;51.046;13.692;2023-03-22T01:05:09;11.10;99.90
70820;DHT22;58439;51.046;13.692;2023-03-22T01:07:49;11.00;99.90
70820;DHT22;58439;51.046;13.692;2023-03-22T01:10:21;11.00;99.90
70820;DHT22;58439;51.046;13.692;2023-03-22T01:12:48;11.00;99.90
70820;DHT22;58439;51.046;13.692;2023-03-22T01:15:15;11.00;99.90
70820;DHT22;58439;51.046;13.692;2023-03-22T01:17:43;11.00;99.90
70820;DHT22;58439;51.046;13.692;2023-03-22T01:20:10;10.90;99.90
70820;DHT22;58439;51.046;13.692;2023-03-22T01:22:41;10.80;99.90
70820;DHT22;58439;51.046;13.692;2023-03-22T01:25:16;10.70;99.90
70820;DHT22;58439;51.046;13.692;2023-03-22T01:27:49;10.60;99.90
70820;DHT22;58439;51.046;13.692;2023-03-22T01:30:16;10.50;99.90
70820;DHT22;58439;51.046;13.692;2023-03-22T01:32:43;10.40;99.90
70820;DHT22;58439;51.046;13.692;2023-03-22T01:35:11;10.40;99.90
70820;DHT22;58439;51.046;13.692;2023-03-22T01:37:40;10.40;99.90
70820;DHT22;58439;51.046;13.692;2023-03-22T01:40:09;10.40;99.90
70820;DHT22;58439;51.046;13.692;2023-03-22T01:42:37;10.30;99.90
70820;DHT22;58439;51.046;13.692;2023-03-22T01:47:56;10.20;99.90
70820;DHT22;58439;51.046;13.692;2023-03-22T01:50:26;10.20;99.90
70820;DHT22;58439;51.046;13.692;2023-03-22T01:52:54;10.20;99.90
70820;DHT22;58439;51.046;13.692;2023-03-22T01:55:27;10.20;99.90
70820;DHT22;58439;51.046;13.692;2023-03-22T01:58:07;10.10;99.90
70820;DHT22;58439;51.046;13.692;2023-03-22T02:00:43;10.10;99.90
70820;DHT22;58439;51.046;13.692;2023-03-22T02:06:33;10.00;99.90
70820;DHT22;58439;51.046;13.692;2023-03-22T02:09:13;10.00;99.90
70820;DHT22;58439;51.046;13.692;2023-03-22T02:11:50;9.90;99.90
70820;DHT22;58439;51.046;13.692;2023-03-22T02:18:09;9.70;99.90
70820;DHT22;58439;51.046;13.692;2023-03-22T02:26:58;9.40;99.90
70820;DHT22;58439;51.046;13.692;2023-03-22T02:29:51;9.30;99.90
70820;DHT22;58439;51.046;13.692;2023-03-22T02:32:35;9.20;99.90
70820;DHT22;58439;51.046;13.692;2023-03-22T02:35:26;9.10;99.90
70820;DHT22;58439;51.046;13.692;2023-03-22T02:41:04;8.90;99.90
70820;DHT22;58439;51.046;13.692;2023-03-22T02:43:40;8.90;99.90
70820;DHT22;58439;51.046;13.692;2023-03-22T02:46:34;8.80;99.90
70820;DHT22;58439;51.046;13.692;2023-03-22T02:49:12;8.80;99.90
70820;DHT22;58439;51.046;13.692;2023-03-22T02:51:51;8.70;99.90
70820;DHT22;58439;51.046;13.692;2023-03-22T02:54:38;8.70;99.90
70820;DHT22;58439;51.046;13.692;2023-03-22T02:57:32;8.70;99.90
70820;DHT22;58439;51.046;13.692;2023-03-22T03:00:07;8.70;99.90
70820;DHT22;58439;51.046;13.692;2023-03-22T03:02:43;8.60;99.90
70820;DHT22;58439;51.046;13.692;2023-03-22T03:05:15;8.60;99.90
70820;DHT22;58439;51.046;13.692;2023-03-22T03:07:45;8.50;99.90
70820;DHT22;58439;51.046;13.692;2023-03-22T03:10:16;8.50;99.90
70820;DHT22;58439;51.046;13.692;2023-03-22T03:12:46;8.50;99.90
70820;DHT22;58439;51.046;13.692;2023-03-22T03:15:14;8.60;99.90
70820;DHT22;58439;51.046;13.692;2023-03-22T03:20:39;8.40;99.90
70820;DHT22;58439;51.046;13.692;2023-03-22T03:28:42;8.30;99.90
70820;DHT22;58439;51.046;13.692;2023-03-22T03:34:09;8.20;99.90
70820;DHT22;58439;51.046;13.692;2023-03-22T03:36:46;8.20;99.90
70820;DHT22;58439;51.046;13.692;2023-03-22T03:39:19;8.20;99.90
70820;DHT22;58439;51.046;13.692;2023-03-22T03:41:49;8.30;99.90
70820;DHT22;58439;51.046;13.692;2023-03-22T03:44:19;8.40;99.90
70820;DHT22;58439;51.046;13.692;2023-03-22T03:46:46;8.50;99.90
70820;DHT22;58439;51.046;13.692;2023-03-22T03:49:14;8.50;99.90
70820;DHT22;58439;51.046;13.692;2023-03-22T03:51:51;8.60;99.90
70820;DHT22;58439;51.046;13.692;2023-03-22T03:54:21;8.70;99.90
70820;DHT22;58439;51.046;13.692;2023-03-22T03:56:48;8.70;99.90
70820;DHT22;58439;51.046;13.692;2023-03-22T03:59:16;8.80;99.90
70820;DHT22;58439;51.046;13.692;2023-03-22T04:01:48;8.80;99.90
70820;DHT22;58439;51.046;13.692;2023-03-22T04:04:25;8.80;99.90
70820;DHT22;58439;51.046;13.692;2023-03-22T04:07:01;8.90;99.90
70820;DHT22;58439;51.046;13.692;2023-03-22T04:09:31;9.00;99.90
70820;DHT22;58439;51.046;13.692;2023-03-22T04:12:36;9.00;99.90
70820;DHT22;58439;51.046;13.692;2023-03-22T04:15:14;9.00;99.90
70820;DHT22;58439;51.046;13.692;2023-03-22T04:17:46;9.00;99.90
70820;DHT22;58439;51.046;13.692;2023-03-22T04:20:14;9.00;99.90
70820;DHT22;58439;51.046;13.692;2023-03-22T04:22:43;9.00;99.90
70820;DHT22;58439;51.046;13.692;2023-03-22T04:25:13;9.00;99.90
70820;DHT22;58439;51.046;13.692;2023-03-22T04:27:54;8.90;99.90
70820;DHT22;58439;51.046;13.692;2023-03-22T04:30:21;8.90;99.90
70820;DHT22;58439;51.046;13.692;2023-03-22T04:33:00;8.90;99.90
70820;DHT22;58439;51.046;13.692;2023-03-22T04:35:52;8.90;99.90
70820;DHT22;58439;51.046;13.692;2023-03-22T04:38:31;8.90;99.90
70820;DHT22;58439;51.046;13.692;2023-03-22T04:40:59;8.90;99.90
70820;DHT22;58439;51.046;13.692;2023-03-22T04:43:34;8.90;99.90
70820;DHT22;58439;51.046;13.692;2023-03-22T04:46:09;8.90;99.90
70820;DHT22;58439;51.046;13.692;2023-03-22T04:48:48;8.90;99.90
70820;DHT22;58439;51.046;13.692;2023-03-22T04:51:25;8.90;99.90
70820;DHT22;58439;51.046;13.692;2023-03-22T04:54:16;8.80;99.90
70820;DHT22;58439;51.046;13.692;2023-03-22T04:56:44;8.80;99.90
70820;DHT22;58439;51.046;13.692;2023-03-22T04:59:13;8.70;99.90
70820;DHT22;58439;51.046;13.692;2023-03-22T05:01:48;8.70;99.90
70820;DHT22;58439;51.046;13.692;2023-03-22T05:04:21;8.70;99.90
70820;DHT22;58439;51.046;13.692;2023-03-22T05:06:54;8.70;99.90
70820;DHT22;58439;51.046;13.692;2023-03-22T05:09:27;8.60;99.90
70820;DHT22;58439;51.046;13.692;2023-03-22T05:15:12;8.50;99.90
70820;DHT22;58439;51.046;13.692;2023-03-22T05:17:41;8.50;99.90
70820;DHT22;58439;51.046;13.692;2023-03-22T05:23:16;8.60;99.90
70820;DHT22;58439;51.046;13.692;2023-03-22T05:25:49;8.60;99.90
70820;DHT22;58439;51.046;13.692;2023-03-22T05:28:18;8.70;99.90
70820;DHT22;58439;51.046;13.692;2023-03-22T05:31:13;8.70;99.90
70820;DHT22;58439;51.046;13.692;2023-03-22T05:33:56;8.80;99.90
70820;DHT22;58439;51.046;13.692;2023-03-22T05:36:27;8.90;99.90
70820;DHT22;58439;51.046;13.692;2023-03-22T05:39:20;8.90;99.90
70820;DHT22;58439;51.046;13.692;2023-03-22T05:41:49;9.00;99.90
70820;DHT22;58439;51.046;13.692;2023-03-22T05:44:16;9.10;99.90
70820;DHT22;58439;51.046;13.692;2023-03-22T05:46:58;9.10;99.90
70820;DHT22;58439;51.046;13.692;2023-03-22T05:49:49;9.20;99.90
70820;DHT22;58439;51.046;13.692;2023-03-22T05:52:16;9.30;99.90
70820;DHT22;58439;51.046;13.692;2023-03-22T05:54:51;9.40;99.90
70820;DHT22;58439;51.046;13.692;2023-03-22T05:57:18;9.50;99.90
70820;DHT22;58439;51.046;13.692;2023-03-22T06:00:02;9.60;99.90
70820;DHT22;58439;51.046;13.692;2023-03-22T06:02:38;9.60;99.90
70820;DHT22;58439;51.046;13.692;2023-03-22T06:05:09;9.80;99.90
70820;DHT22;58439;51.046;13.692;2023-03-22T06:07:56;9.80;99.90
70820;DHT22;58439;51.046;13.692;2023-03-22T06:10:23;9.90;99.90
70820;DHT22;58439;51.046;13.692;2023-03-22T06:12:56;10.00;99.90
70820;DHT22;58439;51.046;13.692;2023-03-22T06:15:28;10.10;99.70
70820;DHT22;58439;51.046;13.692;2023-03-22T06:18:06;10.20;99.50
70820;DHT22;58439;51.046;13.692;2023-03-22T06:20:40;10.20;99.50
70820;DHT22;58439;51.046;13.692;2023-03-22T06:23:14;10.30;99.40
70820;DHT22;58439;51.046;13.692;2023-03-22T06:25:49;10.30;99.20
70820;DHT22;58439;51.046;13.692;2023-03-22T06:28:18;10.30;99.30
70820;DHT22;58439;51.046;13.692;2023-03-22T06:31:06;10.40;99.00
70820;DHT22;58439;51.046;13.692;2023-03-22T06:33:51;10.40;98.50
70820;DHT22;58439;51.046;13.692;2023-03-22T06:36:30;10.50;98.50
70820;DHT22;58439;51.046;13.692;2023-03-22T06:39:07;10.60;98.30
70820;DHT22;58439;51.046;13.692;2023-03-22T06:41:35;10.70;97.90
70820;DHT22;58439;51.046;13.692;2023-03-22T06:44:04;10.70;97.90
70820;DHT22;58439;51.046;13.692;2023-03-22T06:46:42;10.70;97.90
70820;DHT22;58439;51.046;13.692;2023-03-22T06:49:19;10.80;97.80
70820;DHT22;58439;51.046;13.692;2023-03-22T06:51:49;10.90;97.70
70820;DHT22;58439;51.046;13.692;2023-03-22T06:54:17;11.00;97.60
70820;DHT22;58439;51.046;13.692;2023-03-22T06:56:45;11.10;97.10
70820;DHT22;58439;51.046;13.692;2023-03-22T06:59:12;11.10;96.80
70820;DHT22;58439;51.046;13.692;2023-03-22T07:01:43;11.20;96.20
70820;DHT22;58439;51.046;13.692;2023-03-22T07:04:10;11.30;95.90
70820;DHT22;58439;51.046;13.692;2023-03-22T07:06:38;11.30;95.40
70820;DHT22;58439;51.046;13.692;2023-03-22T07:09:08;11.30;95.20
70820;DHT22;58439;51.046;13.692;2023-03-22T07:11:38;11.40;95.00
70820;DHT22;58439;51.046;13.692;2023-03-22T07:14:07;11.40;94.60
70820;DHT22;58439;51.046;13.692;2023-03-22T07:16:48;11.50;94.40
70820;DHT22;58439;51.046;13.692;2023-03-22T07:19:18;11.50;93.90
70820;DHT22;58439;51.046;13.692;2023-03-22T07:21:46;11.60;93.70
70820;DHT22;58439;51.046;13.692;2023-03-22T07:24:13;11.60;93.70
70820;DHT22;58439;51.046;13.692;2023-03-22T07:26:40;11.70;93.50
70820;DHT22;58439;51.046;13.692;2023-03-22T07:29:12;11.70;93.50
70820;DHT22;58439;51.046;13.692;2023-03-22T07:31:45;11.70;93.50
70820;DHT22;58439;51.046;13.692;2023-03-22T07:34:20;11.80;93.30
70820;DHT22;58439;51.046;13.692;2023-03-22T07:36:59;11.80;93.00
70820;DHT22;58439;51.046;13.692;2023-03-22T07:39:28;11.80;92.90
70820;DHT22;58439;51.046;13.692;2023-03-22T07:41:57;11.80;93.00
70820;DHT22;58439;51.046;13.692;2023-03-22T07:44:24;11.90;93.10
70820;DHT22;58439;51.046;13.692;2023-03-22T07:47:11;11.90;93.10
70820;DHT22;58439;51.046;13.692;2023-03-22T07:50:04;12.10;93.00
70820;DHT22;58439;51.046;13.692;2023-03-22T07:52:33;12.30;92.70
70820;DHT22;58439;51.046;13.692;2023-03-22T07:55:00;12.40;92.50
70820;DHT22;58439;51.046;13.692;2023-03-22T07:57:28;12.50;92.10
70820;DHT22;58439;51.046;13.692;2023-03-22T07:59:58;12.70;91.60
70820;DHT22;58439;51.046;13.692;2023-03-22T08:02:41;12.80;90.90
70820;DHT22;58439;51.046;13.692;2023-03-22T08:05:24;13.00;90.00
70820;DHT22;58439;51.046;13.692;2023-03-22T08:07:58;13.10;89.10
70820;DHT22;58439;51.046;13.692;2023-03-22T08:10:26;13.30;86.80
70820;DHT22;58439;51.046;13.692;2023-03-22T08:12:54;13.50;85.10
70820;DHT22;58439;51.046;13.692;2023-03-22T08:15:24;13.80;81.80
70820;DHT22;58439;51.046;13.692;2023-03-22T08:17:52;14.10;75.20
70820;DHT22;58439;51.046;13.692;2023-03-22T08:20:38;14.30;73.60
70820;DHT22;58439;51.046;13.692;2023-03-22T08:23:12;14.50;69.30
70820;DHT22;58439;51.046;13.692;2023-03-22T08:26:09;14.60;63.90
70820;DHT22;58439;51.046;13.692;2023-03-22T08:28:47;14.70;61.10
70820;DHT22;58439;51.046;13.692;2023-03-22T08:31:16;14.80;60.10
70820;DHT22;58439;51.046;13.692;2023-03-22T08:33:48;14.90;57.60
70820;DHT22;58439;51.046;13.692;2023-03-22T08:36:17;15.00;57.50
70820;DHT22;58439;51.046;13.692;2023-03-22T08:38:57;15.10;56.90
70820;DHT22;58439;51.046;13.692;2023-03-22T08:41:35;15.20;56.30
70820;DHT22;58439;51.046;13.692;2023-03-22T08:44:03;15.30;55.40
70820;DHT22;58439;51.046;13.692;2023-03-22T08:46:33;15.40;54.60
70820;DHT22;58439;51.046;13.692;2023-03-22T08:49:01;15.50;54.60
70820;DHT22;58439;51.046;13.692;2023-03-22T08:51:47;15.70;53.40
70820;DHT22;58439;51.046;13.692;2023-03-22T08:54:38;15.90;52.50
70820;DHT22;58439;51.046;13.692;2023-03-22T08:57:26;16.00;49.60
70820;DHT22;58439;51.046;13.692;2023-03-22T09:00:24;16.00;49.10
70820;DHT22;58439;51.046;13.692;2023-03-22T09:03:04;15.90;49.10
70820;DHT22;58439;51.046;13.692;2023-03-22T09:05:32;16.00;49.40
70820;DHT22;58439;51.046;13.692;2023-03-22T09:07:59;16.10;48.60
70820;DHT22;58439;51.046;13.692;2023-03-22T09:10:38;16.10;48.70
70820;DHT22;58439;51.046;13.692;2023-03-22T09:13:12;16.20;47.80
70820;DHT22;58439;51.046;13.692;2023-03-22T09:15:47;16.20;47.90
70820;DHT22;58439;51.046;13.692;2023-03-22T09:18:22;16.40;47.60
70820;DHT22;58439;51.046;13.692;2023-03-22T09:20:51;16.40;47.40
70820;DHT22;58439;51.046;13.692;2023-03-22T09:23:24;16.50;47.70
70820;DHT22;58439;51.046;13.692;2023-03-22T09:25:51;16.60;47.50
70820;DHT22;58439;51.046;13.692;2023-03-22T09:28:22;16.70;46.70
70820;DHT22;58439;51.046;13.692;2023-03-22T09:30:51;16.80;46.60
70820;DHT22;58439;51.046;13.692;2023-03-22T09:33:18;16.90;45.70
70820;DHT22;58439;51.046;13.692;2023-03-22T09:35:49;16.90;45.20
70820;DHT22;58439;51.046;13.692;2023-03-22T09:38:17;17.00;44.20
70820;DHT22;58439;51.046;13.692;2023-03-22T09:40:48;16.90;44.40
70820;DHT22;58439;51.046;13.692;2023-03-22T09:43:31;17.00;44.00
70820;DHT22;58439;51.046;13.692;2023-03-22T09:46:12;17.10;43.40
70820;DHT22;58439;51.046;13.692;2023-03-22T09:48:43;17.10;42.70
70820;DHT22;58439;51.046;13.692;2023-03-22T09:51:57;17.10;42.60
70820;DHT22;58439;51.046;13.692;2023-03-22T09:54:36;17.20;42.50
70820;DHT22;58439;51.046;13.692;2023-03-22T10:00:03;17.30;42.40
70820;DHT22;58439;51.046;13.692;2023-03-22T10:02:41;17.20;42.00
70820;DHT22;58439;51.046;13.692;2023-03-22T10:05:26;17.20;41.60
70820;DHT22;58439;51.046;13.692;2023-03-22T10:08:01;17.20;41.50
70820;DHT22;58439;51.046;13.692;2023-03-22T10:10:38;17.20;41.50
70820;DHT22;58439;51.046;13.692;2023-03-22T10:13:18;17.00;42.00
70820;DHT22;58439;51.046;13.692;2023-03-22T10:15:50;17.00;42.30
70820;DHT22;58439;51.046;13.692;2023-03-22T10:18:21;17.10;41.70
70820;DHT22;58439;51.046;13.692;2023-03-22T10:20:56;17.10;41.30
70820;DHT22;58439;51.046;13.692;2023-03-22T10:24:03;17.10;41.70
70820;DHT22;58439;51.046;13.692;2023-03-22T10:26:45;17.30;41.60
70820;DHT22;58439;51.046;13.692;2023-03-22T10:29:17;17.40;40.60
70820;DHT22;58439;51.046;13.692;2023-03-22T10:31:49;17.50;40.20
70820;DHT22;58439;51.046;13.692;2023-03-22T10:34:20;17.60;40.60
70820;DHT22;58439;51.046;13.692;2023-03-22T10:36:49;17.80;40.30
70820;DHT22;58439;51.046;13.692;2023-03-22T10:42:09;18.20;39.30
70820;DHT22;58439;51.046;13.692;2023-03-22T10:44:46;18.40;38.70
70820;DHT22;58439;51.046;13.692;2023-03-22T10:47:17;18.50;38.00
70820;DHT22;58439;51.046;13.692;2023-03-22T10:49:51;18.60;38.50
70820;DHT22;58439;51.046;13.692;2023-03-22T10:55:11;18.70;37.10
70820;DHT22;58439;51.046;13.692;2023-03-22T10:57:40;18.80;37.10
70820;DHT22;58439;51.046;13.692;2023-03-22T11:00:10;19.70;35.80
70820;DHT22;58439;51.046;13.692;2023-03-22T11:02:50;20.60;34.60
70820;DHT22;58439;51.046;13.692;2023-03-22T11:05:20;21.40;33.20
70820;DHT22;58439;51.046;13.692;2023-03-22T11:07:50;22.10;31.40
70820;DHT22;58439;51.046;13.692;2023-03-22T11:10:28;22.50;30.10
70820;DHT22;58439;51.046;13.692;2023-03-22T11:15:36;22.10;30.40
70820;DHT22;58439;51.046;13.692;2023-03-22T11:18:12;22.00;30.90
70820;DHT22;58439;51.046;13.692;2023-03-22T11:20:51;22.20;30.30
70820;DHT22;58439;51.046;13.692;2023-03-22T11:23:22;22.50;30.00
70820;DHT22;58439;51.046;13.692;2023-03-22T11:25:51;23.00;29.50
70820;DHT22;58439;51.046;13.692;2023-03-22T11:28:26;23.20;28.20
70820;DHT22;58439;51.046;13.692;2023-03-22T11:31:06;23.20;28.10
70820;DHT22;58439;51.046;13.692;2023-03-22T11:33:34;23.20;27.90
70820;DHT22;58439;51.046;13.692;2023-03-22T11:36:15;23.10;28.40
70820;DHT22;58439;51.046;13.692;2023-03-22T11:38:44;23.20;27.40
70820;DHT22;58439;51.046;13.692;2023-03-22T11:41:19;23.10;27.30
70820;DHT22;58439;51.046;13.692;2023-03-22T11:43:53;22.90;27.80
70820;DHT22;58439;51.046;13.692;2023-03-22T11:46:23;22.90;27.90
70820;DHT22;58439;51.046;13.692;2023-03-22T11:48:57;23.00;27.10
70820;DHT22;58439;51.046;13.692;2023-03-22T11:51:31;23.10;27.30
70820;DHT22;58439;51.046;13.692;2023-03-22T11:54:07;23.00;27.40
70820;DHT22;58439;51.046;13.692;2023-03-22T11:56:39;23.00;27.30
70820;DHT22;58439;51.046;13.692;2023-03-22T11:59:12;23.30;27.40
70820;DHT22;58439;51.046;13.692;2023-03-22T12:01:53;23.50;27.00
70820;DHT22;58439;51.046;13.692;2023-03-22T12:04:27;23.40;26.90
70820;DHT22;58439;51.046;13.692;2023-03-22T12:06:58;23.30;27.10
70820;DHT22;58439;51.046;13.692;2023-03-22T12:09:39;23.30;26.90
70820;DHT22;58439;51.046;13.692;2023-03-22T12:12:30;23.30;27.00
70820;DHT22;58439;51.046;13.692;2023-03-22T12:15:03;23.60;27.00
70820;DHT22;58439;51.046;13.692;2023-03-22T12:17:44;23.80;26.90
70820;DHT22;58439;51.046;13.692;2023-03-22T12:23:18;24.00;27.00
70820;DHT22;58439;51.046;13.692;2023-03-22T12:26:13;24.10;25.80
70820;DHT22;58439;51.046;13.692;2023-03-22T12:31:31;24.00;26.20
70820;DHT22;58439;51.046;13.692;2023-03-22T12:34:10;24.30;25.80
70820;DHT22;58439;51.046;13.692;2023-03-22T12:36:44;24.70;25.80
70820;DHT22;58439;51.046;13.692;2023-03-22T12:39:36;24.80;25.60
70820;DHT22;58439;51.046;13.692;2023-03-22T12:42:12;24.90;25.60
70820;DHT22;58439;51.046;13.692;2023-03-22T12:44:48;24.70;25.80
70820;DHT22;58439;51.046;13.692;2023-03-22T12:47:42;24.90;24.80
70820;DHT22;58439;51.046;13.692;2023-03-22T12:50:17;24.70;24.50
70820;DHT22;58439;51.046;13.692;2023-03-22T12:52:49;24.40;24.80
70820;DHT22;58439;51.046;13.692;2023-03-22T12:55:29;23.80;25.20
70820;DHT22;58439;51.046;13.692;2023-03-22T12:57:58;23.30;25.80
70820;DHT22;58439;51.046;13.692;2023-03-22T13:00:27;23.10;25.90
70820;DHT22;58439;51.046;13.692;2023-03-22T13:03:17;23.30;25.90
70820;DHT22;58439;51.046;13.692;2023-03-22T13:05:58;23.50;25.70
70820;DHT22;58439;51.046;13.692;2023-03-22T13:09:00;24.20;25.50
70820;DHT22;58439;51.046;13.692;2023-03-22T13:11:42;24.80;24.40
70820;DHT22;58439;51.046;13.692;2023-03-22T13:22:25;23.80;23.90
70820;DHT22;58439;51.046;13.692;2023-03-22T13:33:19;23.00;24.40
70820;DHT22;58439;51.046;13.692;2023-03-22T13:36:20;22.50;24.90
70820;DHT22;58439;51.046;13.692;2023-03-22T13:38:53;22.10;25.50
70820;DHT22;58439;51.046;13.692;2023-03-22T13:41:26;22.00;25.90
70820;DHT22;58439;51.046;13.692;2023-03-22T13:43:56;21.90;25.80
70820;DHT22;58439;51.046;13.692;2023-03-22T13:51:55;22.10;26.90
70820;DHT22;58439;51.046;13.692;2023-03-22T13:54:33;21.90;27.30
70820;DHT22;58439;51.046;13.692;2023-03-22T13:57:36;21.70;27.70
70820;DHT22;58439;51.046;13.692;2023-03-22T14:00:33;21.40;28.40
70820;DHT22;58439;51.046;13.692;2023-03-22T14:03:07;21.40;28.70
70820;DHT22;58439;51.046;13.692;2023-03-22T14:05:40;21.50;28.40
70820;DHT22;58439;51.046;13.692;2023-03-22T14:08:22;21.40;28.50
70820;DHT22;58439;51.046;13.692;2023-03-22T14:10:55;21.20;28.60
70820;DHT22;58439;51.046;13.692;2023-03-22T14:13:33;21.00;29.00
70820;DHT22;58439;51.046;13.692;2023-03-22T14:16:06;20.80;29.40
70820;DHT22;58439;51.046;13.692;2023-03-22T14:18:35;20.60;29.60
70820;DHT22;58439;51.046;13.692;2023-03-22T14:21:10;20.70;29.70
70820;DHT22;58439;51.046;13.692;2023-03-22T14:23:43;20.90;29.60
70820;DHT22;58439;51.046;13.692;2023-03-22T14:26:14;21.00;29.60
70820;DHT22;58439;51.046;13.692;2023-03-22T14:28:44;21.20;29.00
70820;DHT22;58439;51.046;13.692;2023-03-22T14:31:28;21.20;29.60
70820;DHT22;58439;51.046;13.692;2023-03-22T14:33:59;21.20;28.90
70820;DHT22;58439;51.046;13.692;2023-03-22T14:36:28;21.20;28.90
70820;DHT22;58439;51.046;13.692;2023-03-22T14:39:05;21.00;29.10
70820;DHT22;58439;51.046;13.692;2023-03-22T14:42:33;20.80;29.50
70820;DHT22;58439;51.046;13.692;2023-03-22T14:44:47;20.70;29.80
70820;DHT22;58439;51.046;13.692;2023-03-22T14:47:16;20.80;30.10
70820;DHT22;58439;51.046;13.692;2023-03-22T14:49:46;21.30;29.70
70820;DHT22;58439;51.046;13.692;2023-03-22T14:54:48;22.20;27.80
70820;DHT22;58439;51.046;13.692;2023-03-22T14:57:16;22.80;27.60
70820;DHT22;58439;51.046;13.692;2023-03-22T14:59:43;23.60;26.60
70820;DHT22;58439;51.046;13.692;2023-03-22T15:02:21;24.20;25.80
70820;DHT22;58439;51.046;13.692;2023-03-22T15:04:51;24.40;25.60
70820;DHT22;58439;51.046;13.692;2023-03-22T15:07:20;25.00;25.00
70820;DHT22;58439;51.046;13.692;2023-03-22T15:09:47;25.50;24.20
70820;DHT22;58439;51.046;13.692;2023-03-22T15:12:13;25.70;23.50
70820;DHT22;58439;51.046;13.692;2023-03-22T15:14:41;25.70;22.90
70820;DHT22;58439;51.046;13.692;2023-03-22T15:17:09;25.80;22.90
70820;DHT22;58439;51.046;13.692;2023-03-22T15:19:49;25.80;22.80
70820;DHT22;58439;51.046;13.692;2023-03-22T15:22:17;25.60;22.30
70820;DHT22;58439;51.046;13.692;2023-03-22T15:24:58;25.40;22.70
70820;DHT22;58439;51.046;13.692;2023-03-22T15:27:26;25.50;22.90
70820;DHT22;58439;51.046;13.692;2023-03-22T15:29:55;25.50;22.40
70820;DHT22;58439;51.046;13.692;2023-03-22T15:32:23;25.60;22.00
70820;DHT22;58439;51.046;13.692;2023-03-22T15:34:51;25.40;22.80
70820;DHT22;58439;51.046;13.692;2023-03-22T15:39:53;24.30;22.90
70820;DHT22;58439;51.046;13.692;2023-03-22T15:42:30;23.50;23.50
70820;DHT22;58439;51.046;13.692;2023-03-22T15:44:59;23.00;24.00
70820;DHT22;58439;51.046;13.692;2023-03-22T15:47:50;22.40;24.50
70820;DHT22;58439;51.046;13.692;2023-03-22T15:50:21;21.80;25.10
70820;DHT22;58439;51.046;13.692;2023-03-22T15:52:49;21.40;26.10
70820;DHT22;58439;51.046;13.692;2023-03-22T15:55:17;21.10;26.70
70820;DHT22;58439;51.046;13.692;2023-03-22T16:02:59;20.40;28.30
70820;DHT22;58439;51.046;13.692;2023-03-22T16:05:41;20.20;28.70
70820;DHT22;58439;51.046;13.692;2023-03-22T16:08:11;20.00;29.00
70820;DHT22;58439;51.046;13.692;2023-03-22T16:10:40;19.70;29.40
70820;DHT22;58439;51.046;13.692;2023-03-22T16:13:16;19.50;29.70
70820;DHT22;58439;51.046;13.692;2023-03-22T16:15:44;19.30;29.90
70820;DHT22;58439;51.046;13.692;2023-03-22T16:18:23;19.10;30.10
70820;DHT22;58439;51.046;13.692;2023-03-22T16:20:50;19.00;30.70
70820;DHT22;58439;51.046;13.692;2023-03-22T16:23:21;18.80;31.00
70820;DHT22;58439;51.046;13.692;2023-03-22T16:25:49;18.70;31.60
70820;DHT22;58439;51.046;13.692;2023-03-22T16:28:15;18.60;32.00
70820;DHT22;58439;51.046;13.692;2023-03-22T16:30:41;18.50;32.60
70820;DHT22;58439;51.046;13.692;2023-03-22T16:33:11;18.30;32.90
70820;DHT22;58439;51.046;13.692;2023-03-22T16:35:39;18.20;32.90
70820;DHT22;58439;51.046;13.692;2023-03-22T16:38:06;18.10;31.50
70820;DHT22;58439;51.046;13.692;2023-03-22T16:40:32;17.90;31.40
70820;DHT22;58439;51.046;13.692;2023-03-22T16:43:00;17.80;31.30
70820;DHT22;58439;51.046;13.692;2023-03-22T16:45:29;17.70;31.40
70820;DHT22;58439;51.046;13.692;2023-03-22T16:47:59;17.60;31.60
70820;DHT22;58439;51.046;13.692;2023-03-22T16:50:31;17.40;31.70
70820;DHT22;58439;51.046;13.692;2023-03-22T16:52:59;17.30;32.00
70820;DHT22;58439;51.046;13.692;2023-03-22T16:55:27;17.20;32.20
70820;DHT22;58439;51.046;13.692;2023-03-22T16:57:55;17.10;32.40
70820;DHT22;58439;51.046;13.692;2023-03-22T17:00:21;17.00;32.90
70820;DHT22;58439;51.046;13.692;2023-03-22T17:02:53;16.80;33.00
70820;DHT22;58439;51.046;13.692;2023-03-22T17:05:25;16.80;33.50
70820;DHT22;58439;51.046;13.692;2023-03-22T17:07:54;16.70;33.80
70820;DHT22;58439;51.046;13.692;2023-03-22T17:10:25;16.60;34.00
70820;DHT22;58439;51.046;13.692;2023-03-22T17:12:53;16.50;34.10
70820;DHT22;58439;51.046;13.692;2023-03-22T17:15:24;16.40;34.30
70820;DHT22;58439;51.046;13.692;2023-03-22T17:17:56;16.30;34.60
70820;DHT22;58439;51.046;13.692;2023-03-22T17:20:28;16.20;35.00
70820;DHT22;58439;51.046;13.692;2023-03-22T17:22:56;16.10;35.10
70820;DHT22;58439;51.046;13.692;2023-03-22T17:25:24;16.00;35.40
70820;DHT22;58439;51.046;13.692;2023-03-22T17:27:52;15.90;35.70